KALB/ALB METAR and TAF weather

Enter ICAO airport designator
Station Type Date Time Source
KALB METAR 2019/08/21 22:16 UTC NOAA

KALB 212216Z 16004KT 10SM FEW015 SCT034 BKN150 OVC230 24/21 A2984 RMK AO2 LTG DSNT E-S TSE16 CB DSNT E-S T02440206


Station Type Date Time Source
KALB Decoded METAR 2019/08/21 22:16 UTC NOAA

Station name not available
Aug 21, 2019 - 06:16 PM EDT / 2019.08.21 2216 UTC
Wind: from the SSE (160 degrees) at 5 MPH (4 KT):0
Visibility: 10 mile(s):0
Sky conditions: overcast
Weather: Cumulonimbus clouds, lightning observed
Temperature: 75.9 F (24.4 C)
Dew Point: 69.1 F (20.6 C)
Relative Humidity: 79%
Pressure (altimeter): 29.84 in. Hg (1010 hPa)
ob: KALB 212216Z 16004KT 10SM FEW015 SCT034 BKN150 OVC230 24/21 A2984 RMK AO2 LTG DSNT E-S TSE16 CB DSNT E-S T02440206
cycle: 22

Station Type Date Time Source
KALB TAF 2019/08/21 22:06 UTC NOAA

TAF
AMD KALB 212203Z 2122/2218 12004KT P6SM SCT017 SCT030 BKN150
TEMPO 2122/2123 34008G25KT 3SM TSRA OVC020CB
FM220600 17004KT P6SM SCT025 OVC035
FM221500 26005KT P6SM SCT050

Example: see airport list